Lawrence, Kansas
Current Conditions -  °F | °C
As of 3:52 AM on Thursday 29 Jan 2015 (Local Time) from KLWC Reporting Station
Overcast Overcast  
Wind Chill: 32°   Ceiling: 2400
Heat Index: 42°   Visibility: 9mi
Dew Point: 33°   Wind: 24mph
Humidity: 70%   Direction: 340°NNW
Pressure: 30.1"   Gusts: 41mph
Location:  38.97°N, 95.24°W
Report Text: KLWC 290952Z AUTO 34021G36KT 9SM OVC024 06/01 A3010 RMK AO2 PK WND 34041/0940 SLP192 T00560006
Loading
Personal Weather Stations






























Interactive Weather Map New forecast layout! Learn more

10-Day Weather Forecast

Advertisements
Track Severe Weather on mobile